Time;durP1;ratioP1;P1;durP2;ratioP2;P2;SDS_P1;SDS_P2;PMS_P1;PMS_P2;Temp;Humidity;BMP_temperature;BMP_pressure;BME280_temperature;BME280_humidity;BME280_pressure;Samples;Min_cycle;Max_cycle;Signal;HPM_P1;HPM_P2
2022/05/26 00:00:13;;;;;;;4.40;3.50;;;;;;;-128.00;-1.00;-1.00;100152;1299;1003322;-25
2022/05/26 00:02:42;;;;;;;3.90;3.60;;;;;;;-128.00;-1.00;-1.00;100132;1299;1004207;-29
2022/05/26 00:05:11;;;;;;;5.20;3.50;;;;;;;-128.00;-1.00;-1.00;100176;1298;1003693;-29
2022/05/26 00:07:40;;;;;;;3.60;3.20;;;;;;;-128.00;-1.00;-1.00;100195;1299;1004166;-24
2022/05/26 00:10:09;;;;;;;5.30;3.90;;;;;;;-128.00;-1.00;-1.00;100113;1298;1004123;-24
2022/05/26 00:12:38;;;;;;;5.20;3.80;;;;;;;-128.00;-1.00;-1.00;100176;1298;1003044;-28
2022/05/26 00:15:07;;;;;;;4.00;3.20;;;;;;;-128.00;-1.00;-1.00;100217;1299;1003481;-28
2022/05/26 00:17:36;;;;;;;5.00;3.80;;;;;;;-128.00;-1.00;-1.00;100217;1299;1003406;-24
2022/05/26 00:20:06;;;;;;;5.30;4.40;;;;;;;-128.00;-1.00;-1.00;100194;1299;1003319;-28
2022/05/26 00:22:35;;;;;;;5.80;3.90;;;;;;;-128.00;-1.00;-1.00;100117;1299;1004112;-27
2022/05/26 00:25:05;;;;;;;3.60;3.20;;;;;;;-128.00;-1.00;-1.00;100167;1299;1003136;-29
2022/05/26 00:27:34;;;;;;;5.70;2.90;;;;;;;-128.00;-1.00;-1.00;100115;1299;1003549;-31
2022/05/26 00:30:03;;;;;;;4.10;3.60;;;;;;;-128.00;-1.00;-1.00;100139;1299;1003090;-28
2022/05/26 00:32:32;;;;;;;3.90;3.50;;;;;;;-128.00;-1.00;-1.00;100158;1299;1003238;-28
2022/05/26 00:35:02;;;;;;;5.30;2.90;;;;;;;-128.00;-1.00;-1.00;100140;1298;1003354;-28
2022/05/26 00:37:30;;;;;;;6.40;4.00;;;;;;;-128.00;-1.00;-1.00;100251;1299;1003710;-28
2022/05/26 00:40:01;;;;;;;10.60;3.50;;;;;;;-128.00;-1.00;-1.00;100146;1299;1004103;-28
2022/05/26 00:42:30;;;;;;;7.50;4.60;;;;;;;-128.00;-1.00;-1.00;100158;1299;1003202;-28
2022/05/26 00:44:58;;;;;;;7.10;4.20;;;;;;;-128.00;-1.00;-1.00;100145;1299;1004255;-28
2022/05/26 00:47:28;;;;;;;6.40;3.60;;;;;;;-128.00;-1.00;-1.00;100163;1299;1003356;-24
2022/05/26 00:50:02;;;;;;;6.50;5.20;;;;;;;-128.00;-1.00;-1.00;100121;1299;1004662;-25
2022/05/26 00:52:35;;;;;;;7.40;3.40;;;;;;;-128.00;-1.00;-1.00;100168;1299;1004405;-24
2022/05/26 00:55:07;;;;;;;5.60;4.70;;;;;;;-128.00;-1.00;-1.00;100145;1299;1003881;-24
2022/05/26 00:57:39;;;;;;;12.50;4.50;;;;;;;-128.00;-1.00;-1.00;100220;1299;1003486;-24
2022/05/26 01:00:11;;;;;;;5.60;4.70;;;;;;;-128.00;-1.00;-1.00;100184;1299;1003501;-29
2022/05/26 01:02:47;;;;;;;8.90;5.10;;;;;;;-128.00;-1.00;-1.00;100198;1299;1003341;-29
2022/05/26 01:05:19;;;;;;;4.40;4.00;;;;;;;-128.00;-1.00;-1.00;100153;1299;1002860;-24
2022/05/26 01:07:48;;;;;;;11.30;5.40;;;;;;;-128.00;-1.00;-1.00;100129;1299;1003376;-28
2022/05/26 01:10:17;;;;;;;12.80;4.80;;;;;;;-128.00;-1.00;-1.00;100208;1299;1003029;-29
2022/05/26 01:12:46;;;;;;;6.10;4.20;;;;;;;-128.00;-1.00;-1.00;100159;1299;1004001;-24
2022/05/26 01:15:17;;;;;;;6.30;4.10;;;;;;;-128.00;-1.00;-1.00;100198;1299;1004663;-23
2022/05/26 01:17:54;;;;;;;5.10;4.00;;;;;;;-128.00;-1.00;-1.00;100173;1299;1002712;-30
2022/05/26 01:20:27;;;;;;;4.40;3.70;;;;;;;-128.00;-1.00;-1.00;100138;1299;1003290;-29
2022/05/26 01:23:02;;;;;;;8.10;5.80;;;;;;;-128.00;-1.00;-1.00;100188;1299;1003850;-29
2022/05/26 01:25:38;;;;;;;15.90;6.20;;;;;;;-128.00;-1.00;-1.00;100183;1299;1003485;-28
2022/05/26 01:28:19;;;;;;;18.20;8.30;;;;;;;-128.00;-1.00;-1.00;100139;1299;1003085;-29
2022/05/26 01:31:00;;;;;;;8.70;5.90;;;;;;;-128.00;-1.00;-1.00;100152;1298;1004093;-28
2022/05/26 01:33:32;;;;;;;11.50;6.80;;;;;;;-128.00;-1.00;-1.00;100138;1299;1004175;-25
2022/05/26 01:36:06;;;;;;;4.80;3.70;;;;;;;-128.00;-1.00;-1.00;100126;1299;1003506;-25
2022/05/26 01:38:38;;;;;;;5.90;4.10;;;;;;;-128.00;-1.00;-1.00;100194;1299;1004251;-28
2022/05/26 01:41:20;;;;;;;5.50;3.60;;;;;;;-128.00;-1.00;-1.00;100110;1299;1004025;-28
2022/05/26 01:43:53;;;;;;;7.20;6.30;;;;;;;-128.00;-1.00;-1.00;100168;1299;1004680;-28
2022/05/26 01:46:25;;;;;;;5.30;4.80;;;;;;;-128.00;-1.00;-1.00;100103;1299;1004128;-25
2022/05/26 01:48:56;;;;;;;5.00;4.30;;;;;;;-128.00;-1.00;-1.00;100257;1299;1003831;-24
2022/05/26 01:51:29;;;;;;;6.40;5.40;;;;;;;-128.00;-1.00;-1.00;100024;1299;1003931;-25
2022/05/26 01:54:02;;;;;;;4.60;3.90;;;;;;;-128.00;-1.00;-1.00;100064;1298;1004249;-28
2022/05/26 01:56:36;;;;;;;5.20;4.20;;;;;;;-128.00;-1.00;-1.00;100162;1299;1003556;-26
2022/05/26 01:59:13;;;;;;;4.10;3.70;;;;;;;-128.00;-1.00;-1.00;100130;1299;1004461;-28
2022/05/26 02:01:45;;;;;;;4.20;3.80;;;;;;;-128.00;-1.00;-1.00;100147;1299;1003898;-31
2022/05/26 02:04:17;;;;;;;4.00;3.70;;;;;;;-128.00;-1.00;-1.00;100108;1299;1003237;-31
2022/05/26 02:06:50;;;;;;;4.70;4.20;;;;;;;-128.00;-1.00;-1.00;100131;1299;1003777;-25
2022/05/26 02:09:23;;;;;;;5.70;4.60;;;;;;;-128.00;-1.00;-1.00;100154;1298;1003836;-25
2022/05/26 02:11:57;;;;;;;4.80;4.10;;;;;;;-128.00;-1.00;-1.00;100181;1299;1003870;-28
2022/05/26 02:14:31;;;;;;;6.50;4.20;;;;;;;-128.00;-1.00;-1.00;100177;1299;1003806;-28
2022/05/26 02:17:05;;;;;;;4.30;4.00;;;;;;;-128.00;-1.00;-1.00;100111;1299;1003381;-25
2022/05/26 02:19:37;;;;;;;4.00;3.60;;;;;;;-128.00;-1.00;-1.00;100157;1299;1003134;-30
2022/05/26 02:22:11;;;;;;;3.80;3.50;;;;;;;-128.00;-1.00;-1.00;100163;1299;1003480;-28
2022/05/26 02:24:43;;;;;;;4.00;3.60;;;;;;;-128.00;-1.00;-1.00;100107;1299;1003536;-24
2022/05/26 02:27:12;;;;;;;4.20;3.80;;;;;;;-128.00;-1.00;-1.00;100078;1299;1004011;-29
2022/05/26 02:32:13;;;;;;;3.10;2.80;;;;;;;-128.00;-1.00;-1.00;100176;1298;1003621;-24
2022/05/26 02:34:44;;;;;;;3.80;2.90;;;;;;;-128.00;-1.00;-1.00;100192;1299;1002893;-29
2022/05/26 02:37:13;;;;;;;5.40;3.80;;;;;;;-128.00;-1.00;-1.00;100218;1299;1003763;-23
2022/05/26 02:39:42;;;;;;;3.00;2.70;;;;;;;-128.00;-1.00;-1.00;100158;1299;1003347;-30
2022/05/26 02:42:11;;;;;;;5.80;3.30;;;;;;;-128.00;-1.00;-1.00;100223;1299;1004276;-24
2022/05/26 02:44:41;;;;;;;3.70;3.40;;;;;;;-128.00;-1.00;-1.00;100153;1298;1003448;-24
2022/05/26 02:47:14;;;;;;;3.30;2.60;;;;;;;-128.00;-1.00;-1.00;100203;1299;1004050;-28
2022/05/26 02:49:51;;;;;;;4.00;2.30;;;;;;;-128.00;-1.00;-1.00;100154;1299;1004089;-24
2022/05/26 02:52:25;;;;;;;3.20;2.50;;;;;;;-128.00;-1.00;-1.00;100164;1298;1004468;-28
2022/05/26 02:55:03;;;;;;;2.90;2.70;;;;;;;-128.00;-1.00;-1.00;100144;1299;1004038;-30
2022/05/26 02:57:39;;;;;;;3.10;2.40;;;;;;;-128.00;-1.00;-1.00;100137;1299;1003754;-24
2022/05/26 03:00:11;;;;;;;4.50;3.60;;;;;;;-128.00;-1.00;-1.00;100151;1299;1003270;-28
2022/05/26 03:03:03;;;;;;;2.50;2.00;;;;;;;-128.00;-1.00;-1.00;100180;1299;1003087;-24
2022/05/26 03:05:38;;;;;;;3.00;2.80;;;;;;;-128.00;-1.00;-1.00;100155;1299;1003252;-30
2022/05/26 03:08:10;;;;;;;6.60;2.40;;;;;;;-128.00;-1.00;-1.00;100245;1299;1003376;-26
2022/05/26 03:10:39;;;;;;;5.00;2.80;;;;;;;-128.00;-1.00;-1.00;100167;1299;1004408;-24
2022/05/26 03:13:08;;;;;;;2.40;2.10;;;;;;;-128.00;-1.00;-1.00;100170;1299;1003907;-24
2022/05/26 03:15:38;;;;;;;4.00;3.10;;;;;;;-128.00;-1.00;-1.00;100201;1296;1004668;-28
2022/05/26 03:18:07;;;;;;;5.10;2.80;;;;;;;-128.00;-1.00;-1.00;100182;1299;1004027;-30
2022/05/26 03:20:37;;;;;;;3.20;2.90;;;;;;;-128.00;-1.00;-1.00;100112;1298;1003675;-30
2022/05/26 03:23:06;;;;;;;2.70;2.30;;;;;;;-128.00;-1.00;-1.00;100151;1298;1003687;-30
2022/05/26 03:25:35;;;;;;;2.90;2.60;;;;;;;-128.00;-1.00;-1.00;100174;1299;1004117;-26
2022/05/26 03:28:04;;;;;;;4.20;3.70;;;;;;;-128.00;-1.00;-1.00;100139;1299;1004726;-24
2022/05/26 03:30:33;;;;;;;2.60;2.40;;;;;;;-128.00;-1.00;-1.00;100138;1299;1003859;-26
2022/05/26 03:33:02;;;;;;;2.60;2.00;;;;;;;-128.00;-1.00;-1.00;100189;1298;1004184;-24
2022/05/26 03:43:09;;;;;;;2.70;2.10;;;;;;;-128.00;-1.00;-1.00;100155;1299;1003871;-30
2022/05/26 03:45:38;;;;;;;2.70;2.40;;;;;;;-128.00;-1.00;-1.00;100166;1299;1004015;-25
2022/05/26 03:48:07;;;;;;;6.40;2.90;;;;;;;-128.00;-1.00;-1.00;100093;1299;1004386;-28
2022/05/26 03:50:36;;;;;;;2.60;2.40;;;;;;;-128.00;-1.00;-1.00;100212;1298;1003983;-28
2022/05/26 03:53:05;;;;;;;3.60;3.30;;;;;;;-128.00;-1.00;-1.00;100129;1297;1002960;-31
2022/05/26 03:55:35;;;;;;;3.20;2.90;;;;;;;-128.00;-1.00;-1.00;100100;1299;1003829;-24
2022/05/26 03:58:05;;;;;;;2.60;2.40;;;;;;;-128.00;-1.00;-1.00;100039;1299;1003944;-25
2022/05/26 04:00:35;;;;;;;5.10;2.40;;;;;;;-128.00;-1.00;-1.00;100130;1298;1002977;-28
2022/05/26 04:03:04;;;;;;;7.90;2.70;;;;;;;-128.00;-1.00;-1.00;100147;1299;1005667;-23
2022/05/26 04:05:33;;;;;;;2.70;2.20;;;;;;;-128.00;-1.00;-1.00;100174;1299;1004180;-28
2022/05/26 04:08:02;;;;;;;3.10;2.50;;;;;;;-128.00;-1.00;-1.00;100187;1299;1003726;-28
2022/05/26 04:10:31;;;;;;;4.00;2.30;;;;;;;-128.00;-1.00;-1.00;100221;1298;1003627;-28
2022/05/26 04:13:00;;;;;;;2.10;1.90;;;;;;;-128.00;-1.00;-1.00;100155;1299;1003378;-24
2022/05/26 04:15:29;;;;;;;3.10;1.90;;;;;;;-128.00;-1.00;-1.00;99908;1298;1004298;-24
2022/05/26 04:17:58;;;;;;;3.00;2.10;;;;;;;-128.00;-1.00;-1.00;100246;1299;1004003;-28
2022/05/26 04:20:27;;;;;;;2.70;1.80;;;;;;;-128.00;-1.00;-1.00;100210;1299;1002903;-23
2022/05/26 04:22:56;;;;;;;1.90;1.70;;;;;;;-128.00;-1.00;-1.00;100172;1299;1003770;-28
2022/05/26 04:25:25;;;;;;;12.10;1.80;;;;;;;-128.00;-1.00;-1.00;100172;1299;1003148;-28
2022/05/26 04:27:55;;;;;;;1.30;1.10;;;;;;;-128.00;-1.00;-1.00;100199;1298;1004288;-24
2022/05/26 04:30:24;;;;;;;2.60;1.60;;;;;;;-128.00;-1.00;-1.00;100137;1298;1004237;-28
2022/05/26 04:32:53;;;;;;;1.40;1.30;;;;;;;-128.00;-1.00;-1.00;100199;1299;1003145;-26
2022/05/26 04:35:22;;;;;;;2.30;1.80;;;;;;;-128.00;-1.00;-1.00;100183;1299;1004203;-28
2022/05/26 04:37:51;;;;;;;1.30;1.20;;;;;;;-128.00;-1.00;-1.00;100214;1299;1003867;-28
2022/05/26 04:40:20;;;;;;;3.70;1.50;;;;;;;-128.00;-1.00;-1.00;100173;1299;1003419;-24
2022/05/26 04:42:49;;;;;;;1.90;1.50;;;;;;;-128.00;-1.00;-1.00;100136;1299;1003583;-30
2022/05/26 04:45:18;;;;;;;2.80;1.40;;;;;;;-128.00;-1.00;-1.00;100081;1299;1003840;-27
2022/05/26 04:47:47;;;;;;;1.00;0.90;;;;;;;-128.00;-1.00;-1.00;100175;1299;1004404;-26
2022/05/26 04:50:16;;;;;;;2.10;1.20;;;;;;;-128.00;-1.00;-1.00;100167;1299;1003751;-28
2022/05/26 04:52:45;;;;;;;2.00;1.80;;;;;;;-128.00;-1.00;-1.00;100180;1299;1003628;-28
2022/05/26 04:55:15;;;;;;;1.70;1.10;;;;;;;-128.00;-1.00;-1.00;100107;1299;1003637;-31
2022/05/26 04:57:44;;;;;;;2.10;1.20;;;;;;;-128.00;-1.00;-1.00;100173;1299;1002708;-30
2022/05/26 05:00:15;;;;;;;1.50;1.10;;;;;;;-128.00;-1.00;-1.00;100217;1299;1003728;-29
2022/05/26 05:02:44;;;;;;;3.60;0.70;;;;;;;-128.00;-1.00;-1.00;100176;1299;1005382;-25
2022/05/26 05:05:12;;;;;;;4.20;1.50;;;;;;;-128.00;-1.00;-1.00;100200;1299;1003674;-25
2022/05/26 05:07:41;;;;;;;12.30;1.60;;;;;;;-128.00;-1.00;-1.00;100025;1299;1003436;-25
2022/05/26 05:10:10;;;;;;;2.50;1.20;;;;;;;-128.00;-1.00;-1.00;100173;1299;1004000;-24
2022/05/26 05:12:40;;;;;;;3.80;1.10;;;;;;;-128.00;-1.00;-1.00;100172;1299;1003744;-24
2022/05/26 05:15:14;;;;;;;1.00;0.80;;;;;;;-128.00;-1.00;-1.00;100123;1299;1003499;-28
2022/05/26 05:17:44;;;;;;;7.60;1.30;;;;;;;-128.00;-1.00;-1.00;100266;1299;1003775;-25
2022/05/26 05:20:13;;;;;;;4.60;1.20;;;;;;;-128.00;-1.00;-1.00;100127;1299;1004644;-28
2022/05/26 05:22:46;;;;;;;1.30;0.90;;;;;;;-128.00;-1.00;-1.00;100174;1299;1004175;-27
2022/05/26 05:25:19;;;;;;;0.60;0.60;;;;;;;-128.00;-1.00;-1.00;100113;1299;1003793;-23
2022/05/26 05:27:53;;;;;;;0.80;0.80;;;;;;;-128.00;-1.00;-1.00;100156;1299;1003599;-27
2022/05/26 05:30:24;;;;;;;2.10;0.90;;;;;;;-128.00;-1.00;-1.00;100122;1299;1003433;-30
2022/05/26 05:32:55;;;;;;;1.80;0.90;;;;;;;-128.00;-1.00;-1.00;100211;1299;1002814;-23
2022/05/26 05:35:26;;;;;;;2.50;1.30;;;;;;;-128.00;-1.00;-1.00;100078;1299;1004075;-24
2022/05/26 05:37:55;;;;;;;2.90;1.70;;;;;;;-128.00;-1.00;-1.00;100172;1299;1002769;-30
2022/05/26 05:40:24;;;;;;;1.70;1.40;;;;;;;-128.00;-1.00;-1.00;100158;1299;1003838;-26
2022/05/26 05:42:53;;;;;;;1.20;0.90;;;;;;;-128.00;-1.00;-1.00;100151;1299;1004140;-28
2022/05/26 05:45:22;;;;;;;1.30;1.20;;;;;;;-128.00;-1.00;-1.00;100146;1299;1003803;-24
2022/05/26 05:47:51;;;;;;;1.70;1.10;;;;;;;-128.00;-1.00;-1.00;100159;1299;1004360;-30
2022/05/26 05:50:21;;;;;;;2.30;1.10;;;;;;;-128.00;-1.00;-1.00;100132;1299;1003736;-24
2022/05/26 05:52:49;;;;;;;2.80;0.80;;;;;;;-128.00;-1.00;-1.00;100137;1299;1004056;-24
2022/05/26 05:55:19;;;;;;;1.00;0.70;;;;;;;-128.00;-1.00;-1.00;100115;1299;1003950;-25
2022/05/26 05:57:49;;;;;;;1.30;0.80;;;;;;;-128.00;-1.00;-1.00;100189;1299;1003800;-22
2022/05/26 06:00:18;;;;;;;2.30;0.80;;;;;;;-128.00;-1.00;-1.00;100157;1301;1004030;-28
2022/05/26 06:02:47;;;;;;;1.30;0.80;;;;;;;-128.00;-1.00;-1.00;100218;1299;1003274;-24
2022/05/26 06:05:16;;;;;;;0.70;0.60;;;;;;;-128.00;-1.00;-1.00;100181;1299;1003431;-28
2022/05/26 06:07:45;;;;;;;1.50;1.00;;;;;;;-128.00;-1.00;-1.00;100178;1298;1004432;-28
2022/05/26 06:10:14;;;;;;;1.80;1.00;;;;;;;-128.00;-1.00;-1.00;100156;1299;1004097;-25
2022/05/26 06:12:43;;;;;;;0.40;0.30;;;;;;;-128.00;-1.00;-1.00;100164;1298;1004665;-29
2022/05/26 06:15:12;;;;;;;0.70;0.60;;;;;;;-128.00;-1.00;-1.00;100220;1299;1002839;-29
2022/05/26 06:17:42;;;;;;;2.40;0.60;;;;;;;-128.00;-1.00;-1.00;100162;1299;1004740;-29
2022/05/26 06:20:11;;;;;;;1.70;0.90;;;;;;;-128.00;-1.00;-1.00;100107;1299;1003763;-29
2022/05/26 06:22:42;;;;;;;1.20;0.70;;;;;;;-128.00;-1.00;-1.00;100129;1299;1003976;-25
2022/05/26 06:25:12;;;;;;;1.50;1.10;;;;;;;-128.00;-1.00;-1.00;100232;1299;1003363;-24
2022/05/26 06:30:15;;;;;;;2.40;0.70;;;;;;;-128.00;-1.00;-1.00;100197;1299;1003283;-26
2022/05/26 06:37:50;;;;;;;1.00;0.60;;;;;;;-128.00;-1.00;-1.00;100123;1297;1002941;-30
2022/05/26 06:40:19;;;;;;;1.00;0.70;;;;;;;-128.00;-1.00;-1.00;100148;1299;1003130;-28
2022/05/26 06:42:48;;;;;;;1.20;0.60;;;;;;;-128.00;-1.00;-1.00;100166;1299;1004529;-28
2022/05/26 06:45:19;;;;;;;6.00;1.00;;;;;;;-128.00;-1.00;-1.00;100190;1299;1003305;-28
2022/05/26 06:47:48;;;;;;;1.50;0.50;;;;;;;-128.00;-1.00;-1.00;100154;1299;1003740;-26
2022/05/26 06:50:17;;;;;;;1.10;0.80;;;;;;;-128.00;-1.00;-1.00;100184;1299;1004149;-28
2022/05/26 06:52:46;;;;;;;3.30;0.80;;;;;;;-128.00;-1.00;-1.00;100158;1299;1003707;-28
2022/05/26 06:55:15;;;;;;;0.60;0.50;;;;;;;-128.00;-1.00;-1.00;100181;1299;1003879;-26
2022/05/26 06:57:44;;;;;;;1.10;0.50;;;;;;;-128.00;-1.00;-1.00;100210;1299;1004657;-24
2022/05/26 07:00:15;;;;;;;1.70;0.60;;;;;;;-128.00;-1.00;-1.00;100145;1299;1003221;-23
2022/05/26 07:02:44;;;;;;;5.70;0.80;;;;;;;-128.00;-1.00;-1.00;100104;1299;1003407;-28
2022/05/26 07:05:13;;;;;;;21.00;0.60;;;;;;;-128.00;-1.00;-1.00;100203;1299;1003636;-28
2022/05/26 07:07:42;;;;;;;6.50;1.10;;;;;;;-128.00;-1.00;-1.00;100230;1299;1004321;-24
2022/05/26 07:10:13;;;;;;;0.30;0.30;;;;;;;-128.00;-1.00;-1.00;100192;1299;1003869;-25
2022/05/26 07:12:42;;;;;;;3.00;0.70;;;;;;;-128.00;-1.00;-1.00;100106;1299;1003206;-28
2022/05/26 07:15:11;;;;;;;3.30;0.60;;;;;;;-128.00;-1.00;-1.00;100178;1299;1004347;-24
2022/05/26 07:17:40;;;;;;;1.00;0.70;;;;;;;-128.00;-1.00;-1.00;100224;1299;1003406;-24
2022/05/26 07:20:10;;;;;;;1.10;0.60;;;;;;;-128.00;-1.00;-1.00;100138;1299;1002965;-28
2022/05/26 07:22:39;;;;;;;1.60;0.80;;;;;;;-128.00;-1.00;-1.00;100137;1299;1003791;-24
2022/05/26 07:25:08;;;;;;;0.90;0.60;;;;;;;-128.00;-1.00;-1.00;100147;1299;1004103;-24
2022/05/26 07:27:37;;;;;;;1.60;0.60;;;;;;;-128.00;-1.00;-1.00;100165;1299;1004200;-28
2022/05/26 07:30:07;;;;;;;0.40;0.30;;;;;;;-128.00;-1.00;-1.00;100175;1299;1003488;-24
2022/05/26 07:32:36;;;;;;;1.60;0.40;;;;;;;-128.00;-1.00;-1.00;100194;1299;1003589;-28
2022/05/26 07:35:05;;;;;;;1.30;0.60;;;;;;;-128.00;-1.00;-1.00;100120;1299;1004762;-28
2022/05/26 07:42:40;;;;;;;;;;;;;;;-128.00;-1.00;-1.00;100152;1299;1004717;-26
2022/05/26 07:45:09;;;;;;;29.70;1.40;;;;;;;-128.00;-1.00;-1.00;100148;1299;1003637;-26
2022/05/26 07:47:38;;;;;;;1.30;0.30;;;;;;;-128.00;-1.00;-1.00;100189;1299;1003519;-27
2022/05/26 07:50:11;;;;;;;0.40;0.30;;;;;;;-128.00;-1.00;-1.00;100211;1299;1003341;-28
2022/05/26 07:52:40;;;;;;;0.50;0.20;;;;;;;-128.00;-1.00;-1.00;100117;1299;1003336;-28
2022/05/26 07:55:09;;;;;;;0.60;0.30;;;;;;;-128.00;-1.00;-1.00;100179;1299;1004405;-28
2022/05/26 07:57:37;;;;;;;2.70;0.40;;;;;;;-128.00;-1.00;-1.00;100175;1299;1003965;-28
2022/05/26 08:00:07;;;;;;;0.30;0.30;;;;;;;-128.00;-1.00;-1.00;100166;1299;1004495;-26
2022/05/26 08:02:36;;;;;;;0.50;0.40;;;;;;;-128.00;-1.00;-1.00;100091;1299;1003860;-29
2022/05/26 08:05:07;;;;;;;0.20;0.20;;;;;;;-128.00;-1.00;-1.00;100176;1299;1003151;-24
2022/05/26 08:07:35;;;;;;;1.70;0.50;;;;;;;-128.00;-1.00;-1.00;100174;1299;1003849;-24
2022/05/26 08:10:05;;;;;;;1.60;0.40;;;;;;;-128.00;-1.00;-1.00;100202;1299;1004493;-24
2022/05/26 08:12:34;;;;;;;0.30;0.20;;;;;;;-128.00;-1.00;-1.00;100189;1299;1004223;-24
2022/05/26 08:15:04;;;;;;;3.30;0.50;;;;;;;-128.00;-1.00;-1.00;100173;1299;1004112;-28
2022/05/26 08:17:33;;;;;;;1.00;0.40;;;;;;;-128.00;-1.00;-1.00;100083;1300;1003803;-24
2022/05/26 08:20:03;;;;;;;0.40;0.30;;;;;;;-128.00;-1.00;-1.00;100130;1299;1002942;-30
2022/05/26 08:22:32;;;;;;;0.90;0.60;;;;;;;-128.00;-1.00;-1.00;100110;1298;1003553;-29
2022/05/26 08:25:02;;;;;;;0.70;0.60;;;;;;;-128.00;-1.00;-1.00;100214;1299;1003206;-28
2022/05/26 08:27:31;;;;;;;0.50;0.20;;;;;;;-128.00;-1.00;-1.00;100167;1298;1002697;-24
2022/05/26 08:30:00;;;;;;;0.40;0.30;;;;;;;-128.00;-1.00;-1.00;100209;1299;1004004;-25
2022/05/26 08:32:29;;;;;;;0.40;0.40;;;;;;;-128.00;-1.00;-1.00;100170;1299;1004011;-24
2022/05/26 08:35:00;;;;;;;0.60;0.30;;;;;;;-128.00;-1.00;-1.00;100210;1299;1003168;-28
2022/05/26 08:37:29;;;;;;;0.50;0.20;;;;;;;-128.00;-1.00;-1.00;99929;1299;1003425;-24
2022/05/26 08:39:58;;;;;;;3.90;0.40;;;;;;;-128.00;-1.00;-1.00;100247;1299;1003702;-23
2022/05/26 08:42:29;;;;;;;1.10;0.60;;;;;;;-128.00;-1.00;-1.00;100187;1299;1004400;-28
2022/05/26 08:45:01;;;;;;;1.00;0.50;;;;;;;-128.00;-1.00;-1.00;100214;1299;1004001;-30
2022/05/26 08:47:34;;;;;;;0.90;0.50;;;;;;;-128.00;-1.00;-1.00;100278;1299;1004563;-29
2022/05/26 08:50:09;;;;;;;0.20;0.20;;;;;;;-128.00;-1.00;-1.00;100092;1299;1004007;-25
2022/05/26 08:52:43;;;;;;;0.30;0.20;;;;;;;-128.00;-1.00;-1.00;100259;1299;1003885;-28
2022/05/26 08:55:17;;;;;;;3.50;0.50;;;;;;;-128.00;-1.00;-1.00;100381;1297;1003607;-25
2022/05/26 08:57:52;;;;;;;0.60;0.30;;;;;;;-128.00;-1.00;-1.00;100200;1299;1004367;-27
2022/05/26 09:00:23;;;;;;;0.40;0.20;;;;;;;-128.00;-1.00;-1.00;100137;1299;1003730;-29
2022/05/26 09:02:56;;;;;;;0.40;0.40;;;;;;;-128.00;-1.00;-1.00;100108;1299;1003923;-29
2022/05/26 09:05:27;;;;;;;2.60;0.20;;;;;;;-128.00;-1.00;-1.00;100211;1299;1003719;-24
2022/05/26 09:13:08;;;;;;;0.90;0.40;;;;;;;-128.00;-1.00;-1.00;100170;1299;1003640;-24
2022/05/26 09:15:38;;;;;;;0.60;0.30;;;;;;;-128.00;-1.00;-1.00;100094;1300;1003689;-24
2022/05/26 09:18:09;;;;;;;0.80;0.50;;;;;;;-128.00;-1.00;-1.00;100203;1299;1004198;-24
2022/05/26 09:20:40;;;;;;;1.10;0.60;;;;;;;-128.00;-1.00;-1.00;100087;1299;1004140;-25
2022/05/26 09:23:15;;;;;;;1.10;0.40;;;;;;;-128.00;-1.00;-1.00;100227;1299;1002616;-24
2022/05/26 09:25:47;;;;;;;2.90;0.20;;;;;;;-128.00;-1.00;-1.00;100135;1299;1003911;-28
2022/05/26 09:28:23;;;;;;;0.30;0.30;;;;;;;-128.00;-1.00;-1.00;100125;1299;1003126;-24
2022/05/26 09:30:53;;;;;;;0.30;0.20;;;;;;;-128.00;-1.00;-1.00;100135;1299;1003656;-24
2022/05/26 09:33:29;;;;;;;5.40;1.20;;;;;;;-128.00;-1.00;-1.00;100142;1299;1003742;-24
2022/05/26 09:36:23;;;;;;;0.30;0.20;;;;;;;-128.00;-1.00;-1.00;100170;1299;1003125;-28
2022/05/26 09:38:52;;;;;;;0.60;0.40;;;;;;;-128.00;-1.00;-1.00;100149;1299;1003795;-30
2022/05/26 09:41:21;;;;;;;1.20;0.40;;;;;;;-128.00;-1.00;-1.00;100028;1299;1004462;-25
2022/05/26 09:43:53;;;;;;;3.70;0.50;;;;;;;-128.00;-1.00;-1.00;100191;1298;1003809;-25
2022/05/26 09:46:23;;;;;;;0.20;0.20;;;;;;;-128.00;-1.00;-1.00;100157;1299;1005446;-24
2022/05/26 09:48:56;;;;;;;1.10;0.10;;;;;;;-128.00;-1.00;-1.00;100127;1299;1003826;-25
2022/05/26 09:51:30;;;;;;;2.70;0.50;;;;;;;-128.00;-1.00;-1.00;100225;1299;1003567;-25
2022/05/26 09:53:59;;;;;;;2.10;0.40;;;;;;;-128.00;-1.00;-1.00;100179;1299;1003672;-28
2022/05/26 09:56:33;;;;;;;0.70;0.20;;;;;;;-128.00;-1.00;-1.00;100172;1299;1004638;-25
2022/05/26 09:59:24;;;;;;;0.80;0.30;;;;;;;-128.00;-1.00;-1.00;100217;1299;1003469;-29
2022/05/26 10:01:58;;;;;;;0.30;0.30;;;;;;;-128.00;-1.00;-1.00;100160;1299;1003921;-30
2022/05/26 10:04:39;;;;;;;0.40;0.20;;;;;;;-128.00;-1.00;-1.00;100172;1299;1002885;-25
2022/05/26 10:07:14;;;;;;;0.50;0.40;;;;;;;-128.00;-1.00;-1.00;100190;1299;1003841;-28
2022/05/26 10:09:47;;;;;;;0.50;0.50;;;;;;;-128.00;-1.00;-1.00;100139;1299;1004538;-28
2022/05/26 10:12:23;;;;;;;0.30;0.10;;;;;;;-128.00;-1.00;-1.00;100212;1299;1004092;-28
2022/05/26 10:15:15;;;;;;;0.50;0.20;;;;;;;-128.00;-1.00;-1.00;100099;1299;1004083;-24
2022/05/26 10:17:51;;;;;;;1.50;0.50;;;;;;;-128.00;-1.00;-1.00;100165;1299;1003535;-28
2022/05/26 10:20:25;;;;;;;2.50;0.50;;;;;;;-128.00;-1.00;-1.00;100073;1299;1003886;-24
2022/05/26 10:22:59;;;;;;;0.80;0.10;;;;;;;-128.00;-1.00;-1.00;100211;1299;1003699;-25
2022/05/26 10:25:35;;;;;;;0.30;0.30;;;;;;;-128.00;-1.00;-1.00;100248;1299;1005076;-28
2022/05/26 10:28:19;;;;;;;0.60;0.30;;;;;;;-128.00;-1.00;-1.00;100091;1299;1002933;-28
2022/05/26 10:30:51;;;;;;;0.20;0.20;;;;;;;-128.00;-1.00;-1.00;100212;1299;1004536;-28
2022/05/26 10:33:32;;;;;;;0.50;0.20;;;;;;;-128.00;-1.00;-1.00;100189;1299;1004327;-24
2022/05/26 10:36:21;;;;;;;1.00;0.20;;;;;;;-128.00;-1.00;-1.00;100168;1299;1004314;-24
2022/05/26 10:38:57;;;;;;;0.90;0.20;;;;;;;-128.00;-1.00;-1.00;100205;1299;1003475;-29
2022/05/26 10:41:31;;;;;;;0.90;0.30;;;;;;;-128.00;-1.00;-1.00;100118;1299;1002924;-27
2022/05/26 10:44:02;;;;;;;0.30;0.20;;;;;;;-128.00;-1.00;-1.00;100181;1299;1003755;-24
2022/05/26 10:46:32;;;;;;;1.40;0.30;;;;;;;-128.00;-1.00;-1.00;100193;1299;1004050;-28
2022/05/26 10:49:04;;;;;;;6.00;0.70;;;;;;;-128.00;-1.00;-1.00;100056;1302;1004108;-28
2022/05/26 10:51:39;;;;;;;0.20;0.10;;;;;;;-128.00;-1.00;-1.00;100183;1299;1003177;-28
2022/05/26 10:54:08;;;;;;;2.00;0.60;;;;;;;-128.00;-1.00;-1.00;100170;1299;1004756;-24
2022/05/26 10:56:40;;;;;;;1.90;0.20;;;;;;;-128.00;-1.00;-1.00;100220;1299;1004091;-30
2022/05/26 10:59:16;;;;;;;5.70;0.60;;;;;;;-128.00;-1.00;-1.00;100201;1299;1003520;-28
2022/05/26 11:01:48;;;;;;;0.30;0.30;;;;;;;-128.00;-1.00;-1.00;100048;1299;1003980;-29
2022/05/26 11:04:22;;;;;;;1.10;0.50;;;;;;;-128.00;-1.00;-1.00;100037;1300;1003561;-25
2022/05/26 11:06:53;;;;;;;0.20;0.20;;;;;;;-128.00;-1.00;-1.00;100064;1299;1002958;-29
2022/05/26 11:09:37;;;;;;;2.20;0.60;;;;;;;-128.00;-1.00;-1.00;100221;1299;1004580;-25
2022/05/26 11:12:13;;;;;;;0.30;0.30;;;;;;;-128.00;-1.00;-1.00;100028;1302;1003510;-29
2022/05/26 11:17:31;;;;;;;10.70;0.50;;;;;;;-128.00;-1.00;-1.00;100058;1299;1004199;-28
2022/05/26 11:20:01;;;;;;;1.00;0.50;;;;;;;-128.00;-1.00;-1.00;100232;1299;1004151;-25
2022/05/26 11:22:30;;;;;;;1.90;0.80;;;;;;;-128.00;-1.00;-1.00;100261;1299;1003813;-25
2022/05/26 11:24:59;;;;;;;3.70;0.60;;;;;;;-128.00;-1.00;-1.00;100200;1299;1003706;-30
2022/05/26 11:27:34;;;;;;;1.40;0.90;;;;;;;-128.00;-1.00;-1.00;100189;1299;1004095;-27
2022/05/26 11:36:07;;;;;;;8.00;0.70;;;;;;;-128.00;-1.00;-1.00;100145;1299;1004320;-26
2022/05/26 11:38:07;;;;;;;4.00;1.20;;;;;;;-128.00;-1.00;-1.00;100139;1299;1004818;-24
2022/05/26 11:40:53;;;;;;;4.80;2.70;;;;;;;-128.00;-1.00;-1.00;100192;1299;1003218;-30
2022/05/26 11:43:24;;;;;;;0.50;0.30;;;;;;;-128.00;-1.00;-1.00;100149;1299;1003885;-30
2022/05/26 11:45:53;;;;;;;2.10;0.70;;;;;;;-128.00;-1.00;-1.00;100072;1300;1003674;-28
2022/05/26 11:48:29;;;;;;;3.60;0.70;;;;;;;-128.00;-1.00;-1.00;100231;1299;1004216;-28
2022/05/26 11:50:59;;;;;;;1.00;0.50;;;;;;;-128.00;-1.00;-1.00;100203;1299;1003228;-25
2022/05/26 11:53:46;;;;;;;1.70;0.60;;;;;;;-128.00;-1.00;-1.00;100228;1299;1003183;-25
2022/05/26 11:56:22;;;;;;;1.40;0.60;;;;;;;-128.00;-1.00;-1.00;100150;1299;1003718;-28
2022/05/26 11:58:58;;;;;;;0.50;0.20;;;;;;;-128.00;-1.00;-1.00;100125;1299;1003375;-29
2022/05/26 12:01:34;;;;;;;1.00;0.40;;;;;;;-128.00;-1.00;-1.00;100198;1299;1003063;-29
2022/05/26 12:04:03;;;;;;;3.30;0.50;;;;;;;-128.00;-1.00;-1.00;100031;1299;1003987;-26
2022/05/26 12:06:40;;;;;;;0.70;0.50;;;;;;;-128.00;-1.00;-1.00;100192;1299;1003062;-28
2022/05/26 12:09:13;;;;;;;0.20;0.20;;;;;;;-128.00;-1.00;-1.00;100171;1299;1003998;-30
2022/05/26 12:11:49;;;;;;;0.40;0.40;;;;;;;-128.00;-1.00;-1.00;100187;1299;1004130;-25